Time;durP1;ratioP1;P1;durP2;ratioP2;P2;SDS_P1;SDS_P2;PMS_P1;PMS_P2;Temp;Humidity;BMP_temperature;BMP_pressure;BME280_temperature;BME280_humidity;BME280_pressure;Samples;Min_cycle;Max_cycle;Signal;HPM_P1;HPM_P2
2023/08/18 00:01:01;;;;;;;14.73;7.90;;;18.50;99.90;;;;;;5112951;28;20206;-67
2023/08/18 00:03:48;;;;;;;11.47;7.57;;;18.50;99.90;;;;;;5113424;28;20639;-67
2023/08/18 00:06:37;;;;;;;14.67;7.40;;;18.50;99.90;;;;;;5113210;28;20223;-67
2023/08/18 00:09:24;;;;;;;13.77;8.30;;;18.40;99.90;;;;;;5112909;28;20234;-67
2023/08/18 00:12:12;;;;;;;13.37;7.93;;;18.50;99.90;;;;;;5113540;28;20204;-67
2023/08/18 00:14:59;;;;;;;12.27;8.20;;;18.40;99.90;;;;;;5112755;28;20616;-67
2023/08/18 00:17:46;;;;;;;14.77;7.93;;;18.30;99.90;;;;;;5113767;28;20216;-67
2023/08/18 00:20:33;;;;;;;12.37;8.43;;;18.30;99.90;;;;;;5112802;28;20202;-67
2023/08/18 00:23:22;;;;;;;11.57;7.70;;;18.30;99.90;;;;;;5113940;28;20205;-67
2023/08/18 00:26:10;;;;;;;11.87;7.90;;;18.30;99.90;;;;;;5112731;28;20221;-67
2023/08/18 00:28:57;;;;;;;14.03;8.20;;;18.30;99.90;;;;;;5113716;28;20655;-67
2023/08/18 00:31:45;;;;;;;14.60;8.20;;;18.30;99.90;;;;;;5113879;28;20220;-67
2023/08/18 00:34:32;;;;;;;13.13;8.27;;;18.30;99.90;;;;;;5113819;28;20210;-67
2023/08/18 00:37:19;;;;;;;14.43;9.53;;;18.20;99.90;;;;;;5113589;28;20202;-67
2023/08/18 00:40:10;;;;;;;16.33;10.13;;;18.30;99.90;;;;;;5114204;28;20224;-67
2023/08/18 00:42:57;;;;;;;17.33;11.00;;;18.20;99.90;;;;;;5112360;28;20199;-67
2023/08/18 00:45:44;;;;;;;16.93;11.37;;;18.20;99.90;;;;;;5113187;28;20251;-68
2023/08/18 00:48:31;;;;;;;20.17;11.40;;;18.20;99.90;;;;;;5113405;28;20220;-67
2023/08/18 00:51:19;;;;;;;14.97;9.93;;;18.20;99.90;;;;;;5112497;28;20226;-67
2023/08/18 00:54:06;;;;;;;17.30;8.90;;;18.00;99.90;;;;;;5112214;28;20686;-67
2023/08/18 00:56:54;;;;;;;16.13;9.57;;;17.90;99.90;;;;;;5113326;28;20254;-67
2023/08/18 00:59:43;;;;;;;13.80;10.37;;;17.90;99.90;;;;;;5112026;28;20613;-67
2023/08/18 01:02:30;;;;;;;15.77;10.17;;;17.90;99.90;;;;;;5112412;28;20234;-68
2023/08/18 01:05:18;;;;;;;17.67;9.47;;;17.90;99.90;;;;;;5113078;28;20213;-67
2023/08/18 01:08:05;;;;;;;19.70;10.13;;;17.90;99.90;;;;;;5112146;28;20199;-67
2023/08/18 01:10:57;;;;;;;44.40;10.87;;;18.00;99.90;;;;;;5091928;28;20575;-67
2023/08/18 01:13:47;;;;;;;15.97;10.00;;;17.90;99.90;;;;;;5092703;28;20227;-68
2023/08/18 01:16:35;;;;;;;21.37;9.73;;;17.90;99.90;;;;;;5092496;28;20278;-67
2023/08/18 01:19:22;;;;;;;28.17;10.00;;;17.90;99.90;;;;;;5091389;28;20196;-67
2023/08/18 01:22:11;;;;;;;14.43;9.80;;;17.80;99.90;;;;;;5107511;28;20201;-67
2023/08/18 01:25:01;;;;;;;19.07;9.93;;;17.80;99.90;;;;;;5111632;28;20205;-68
2023/08/18 01:27:48;;;;;;;23.97;9.87;;;17.80;99.90;;;;;;5112233;28;20226;-67
2023/08/18 01:30:39;;;;;;;16.10;9.63;;;17.80;99.90;;;;;;5112031;28;20210;-67
2023/08/18 01:33:28;;;;;;;18.67;9.93;;;17.70;99.90;;;;;;5111645;28;20686;-67
2023/08/18 01:36:18;;;;;;;15.67;9.40;;;17.70;99.90;;;;;;5111739;28;20194;-67
2023/08/18 01:39:05;;;;;;;14.57;9.20;;;17.60;99.90;;;;;;5111894;28;20202;-68
2023/08/18 01:41:54;;;;;;;20.60;9.60;;;17.50;99.90;;;;;;5111701;28;20679;-67
2023/08/18 01:44:41;;;;;;;19.90;10.50;;;17.50;99.90;;;;;;5111496;28;20208;-67
2023/08/18 01:47:28;;;;;;;16.30;9.90;;;17.50;99.90;;;;;;5111284;28;20734;-68
2023/08/18 01:50:15;;;;;;;13.10;9.80;;;17.40;99.90;;;;;;5111619;28;20203;-68
2023/08/18 01:53:03;;;;;;;15.17;9.50;;;17.40;99.90;;;;;;5110895;28;20221;-68
2023/08/18 01:55:50;;;;;;;15.23;8.93;;;17.30;99.90;;;;;;5111629;28;20192;-68
2023/08/18 01:58:39;;;;;;;13.53;8.80;;;17.30;99.90;;;;;;5111475;28;20513;-68
2023/08/18 02:01:26;;;;;;;13.70;9.10;;;17.20;99.90;;;;;;5111293;28;20227;-68
2023/08/18 02:04:13;;;;;;;16.43;8.40;;;17.30;99.90;;;;;;5111130;28;20277;-68
2023/08/18 02:07:00;;;;;;;13.70;9.40;;;17.20;99.90;;;;;;5110996;28;20218;-68
2023/08/18 02:09:48;;;;;;;16.87;8.23;;;17.20;99.90;;;;;;5111416;28;20202;-68
2023/08/18 02:12:35;;;;;;;13.87;8.70;;;17.20;99.90;;;;;;5111450;28;20283;-68
2023/08/18 02:15:23;;;;;;;11.73;8.23;;;17.20;99.90;;;;;;5111007;28;20197;-68
2023/08/18 02:18:11;;;;;;;11.37;8.83;;;17.20;99.90;;;;;;5110926;28;20202;-68
2023/08/18 02:20:59;;;;;;;11.57;8.50;;;17.10;99.90;;;;;;5111858;28;20688;-68
2023/08/18 02:23:46;;;;;;;14.57;8.70;;;17.10;99.90;;;;;;5110865;28;20200;-68
2023/08/18 02:26:33;;;;;;;11.83;8.13;;;17.00;99.90;;;;;;5111206;28;20214;-68
2023/08/18 02:29:20;;;;;;;11.70;8.20;;;17.10;99.90;;;;;;5111769;28;20207;-68
2023/08/18 02:32:09;;;;;;;15.10;7.73;;;17.00;99.90;;;;;;5110417;28;20195;-68
2023/08/18 02:34:56;;;;;;;17.97;8.17;;;17.10;99.90;;;;;;5110882;28;20217;-68
2023/08/18 02:37:44;;;;;;;19.07;7.90;;;17.00;99.90;;;;;;5111142;28;20220;-68
2023/08/18 02:40:31;;;;;;;15.97;8.63;;;17.10;99.90;;;;;;5110784;28;20671;-68
2023/08/18 02:43:18;;;;;;;14.17;7.90;;;17.10;99.90;;;;;;5110751;28;20280;-68
2023/08/18 02:46:05;;;;;;;13.40;8.20;;;17.10;99.90;;;;;;5111084;28;20210;-68
2023/08/18 02:48:54;;;;;;;19.83;8.43;;;17.10;99.90;;;;;;5110474;28;20197;-68
2023/08/18 02:51:41;;;;;;;16.50;8.73;;;17.10;99.90;;;;;;5111967;28;20727;-68
2023/08/18 02:54:28;;;;;;;20.33;8.10;;;17.10;99.90;;;;;;5110963;28;20201;-68
2023/08/18 02:57:16;;;;;;;18.70;9.70;;;17.10;99.90;;;;;;5110392;28;20193;-68
2023/08/18 03:00:04;;;;;;;17.57;8.90;;;17.10;99.90;;;;;;5110995;28;20769;-68
2023/08/18 03:02:51;;;;;;;12.83;8.17;;;17.10;99.90;;;;;;5094866;28;20312;-68
2023/08/18 03:05:40;;;;;;;16.13;8.67;;;17.10;99.90;;;;;;5089572;28;20575;-68
2023/08/18 03:08:27;;;;;;;10.30;7.33;;;17.00;99.90;;;;;;5090989;28;20573;-68
2023/08/18 03:11:14;;;;;;;13.37;7.03;;;17.10;99.90;;;;;;5093674;28;20200;-68
2023/08/18 03:14:01;;;;;;;15.97;7.90;;;17.00;99.90;;;;;;5093946;28;20668;-68
2023/08/18 03:16:48;;;;;;;12.77;7.60;;;17.00;99.90;;;;;;5094263;28;20324;-68
2023/08/18 03:19:36;;;;;;;12.40;7.83;;;17.00;99.90;;;;;;5093583;28;20206;-69
2023/08/18 03:22:24;;;;;;;13.10;8.23;;;17.00;99.90;;;;;;5093765;28;20247;-68
2023/08/18 03:25:11;;;;;;;14.40;7.93;;;17.00;99.90;;;;;;5092728;28;20202;-68
2023/08/18 03:27:59;;;;;;;13.13;7.83;;;16.90;99.90;;;;;;5092737;28;20219;-68
2023/08/18 03:30:46;;;;;;;11.93;7.30;;;16.90;99.90;;;;;;5093001;28;20196;-68
2023/08/18 03:33:33;;;;;;;14.93;7.80;;;16.90;99.90;;;;;;5093489;28;20209;-68
2023/08/18 03:36:21;;;;;;;11.27;7.63;;;16.80;99.90;;;;;;5093073;28;20221;-68
2023/08/18 03:39:09;;;;;;;9.20;6.80;;;16.80;99.90;;;;;;5092879;28;20202;-68
2023/08/18 03:41:57;;;;;;;11.53;7.60;;;16.80;99.90;;;;;;5093127;28;20590;-68
2023/08/18 03:44:44;;;;;;;12.20;7.03;;;16.70;99.90;;;;;;5092790;28;20202;-68
2023/08/18 03:47:31;;;;;;;11.47;6.97;;;16.70;99.90;;;;;;5093271;28;20228;-68
2023/08/18 03:50:21;;;;;;;11.73;6.87;;;16.80;99.90;;;;;;5093113;28;20200;-68
2023/08/18 03:53:08;;;;;;;8.73;6.47;;;16.80;99.90;;;;;;5093111;28;20703;-68
2023/08/18 03:55:59;;;;;;;13.60;7.50;;;16.80;99.90;;;;;;5093089;28;20214;-68
2023/08/18 03:58:46;;;;;;;11.90;6.67;;;16.80;99.90;;;;;;5093352;28;20567;-68
2023/08/18 04:01:33;;;;;;;11.57;6.97;;;16.70;99.90;;;;;;5097069;28;20588;-68
2023/08/18 04:04:21;;;;;;;8.77;6.50;;;16.80;99.90;;;;;;5112861;28;20196;-68
2023/08/18 04:07:08;;;;;;;12.73;6.80;;;16.80;99.90;;;;;;5113659;28;20217;-68
2023/08/18 04:09:55;;;;;;;15.23;6.53;;;16.80;99.90;;;;;;5113854;28;20596;-68
2023/08/18 04:12:44;;;;;;;11.77;7.00;;;16.80;99.90;;;;;;5113217;28;20576;-68
2023/08/18 04:15:31;;;;;;;11.73;6.60;;;16.80;99.90;;;;;;5113096;28;20572;-68
2023/08/18 04:18:18;;;;;;;10.87;7.13;;;16.70;99.90;;;;;;5113841;28;20198;-68
2023/08/18 04:21:05;;;;;;;13.00;7.10;;;16.70;99.90;;;;;;5112233;28;20202;-68
2023/08/18 04:23:52;;;;;;;13.37;7.07;;;16.80;99.90;;;;;;5113710;28;20248;-68
2023/08/18 04:26:40;;;;;;;10.27;7.30;;;16.80;99.90;;;;;;5113331;28;20584;-68
2023/08/18 04:29:28;;;;;;;8.17;6.80;;;16.80;99.90;;;;;;5113887;28;20205;-68
2023/08/18 04:32:16;;;;;;;9.20;7.13;;;16.80;99.90;;;;;;5113230;28;20203;-68
2023/08/18 04:35:04;;;;;;;12.30;7.47;;;16.80;99.90;;;;;;5112810;28;20199;-68
2023/08/18 04:37:51;;;;;;;14.43;7.57;;;16.90;99.90;;;;;;5112141;28;20248;-68
2023/08/18 04:40:38;;;;;;;11.37;7.93;;;16.90;99.90;;;;;;5113063;28;20191;-68
2023/08/18 04:43:25;;;;;;;13.53;6.70;;;16.90;99.90;;;;;;5112593;28;20203;-68
2023/08/18 04:46:14;;;;;;;10.27;7.53;;;16.90;99.90;;;;;;5112812;28;20682;-68
2023/08/18 04:49:01;;;;;;;9.97;7.27;;;17.00;99.90;;;;;;5112832;28;20630;-68
2023/08/18 04:51:48;;;;;;;10.50;7.57;;;17.00;99.90;;;;;;5112314;28;20229;-68
2023/08/18 04:54:35;;;;;;;14.37;8.70;;;17.10;99.90;;;;;;5112464;28;20195;-68
2023/08/18 04:57:22;;;;;;;16.43;7.80;;;17.20;99.90;;;;;;5112684;28;20271;-68
2023/08/18 05:00:11;;;;;;;13.20;7.87;;;17.30;99.90;;;;;;5112193;28;20650;-68
2023/08/18 05:02:59;;;;;;;15.00;8.43;;;17.30;99.90;;;;;;5111685;28;20237;-68
2023/08/18 05:05:59;;;;;;;16.30;9.50;;;17.40;99.90;;;;;;5113357;28;20201;-68
2023/08/18 05:08:46;;;;;;;10.93;8.23;;;17.50;99.90;;;;;;5112479;28;20193;-68
2023/08/18 05:11:33;;;;;;;11.77;7.53;;;17.60;99.90;;;;;;5112779;28;20263;-68
2023/08/18 05:14:20;;;;;;;11.23;7.70;;;17.70;99.90;;;;;;5112035;28;20209;-68
2023/08/18 05:17:07;;;;;;;14.47;8.53;;;17.70;99.90;;;;;;5112401;28;20198;-68
2023/08/18 05:19:56;;;;;;;11.43;8.53;;;17.80;99.90;;;;;;5111605;28;20206;-68
2023/08/18 05:22:43;;;;;;;12.60;8.23;;;17.80;99.90;;;;;;5111717;28;20555;-68
2023/08/18 05:25:31;;;;;;;17.30;8.80;;;17.70;99.90;;;;;;5112552;28;20201;-68
2023/08/18 05:28:18;;;;;;;15.37;8.57;;;17.80;99.90;;;;;;5112143;28;20219;-68
2023/08/18 05:31:06;;;;;;;17.13;7.80;;;18.00;99.90;;;;;;5110861;28;20194;-68
2023/08/18 05:33:54;;;;;;;12.07;7.57;;;17.90;99.90;;;;;;5111284;28;20196;-68
2023/08/18 05:36:42;;;;;;;13.77;7.50;;;17.90;99.90;;;;;;5111466;28;20198;-68
2023/08/18 05:39:29;;;;;;;13.77;8.40;;;18.00;99.90;;;;;;5111678;28;20202;-68
2023/08/18 05:42:16;;;;;;;15.17;9.03;;;18.10;99.90;;;;;;5111860;28;20202;-68
2023/08/18 05:45:05;;;;;;;13.67;8.60;;;18.10;99.90;;;;;;5111685;28;20199;-68
2023/08/18 05:47:52;;;;;;;14.37;8.87;;;18.30;99.90;;;;;;5111380;28;20226;-68
2023/08/18 05:50:40;;;;;;;16.93;9.27;;;18.50;99.90;;;;;;5111654;28;20278;-69
2023/08/18 05:53:30;;;;;;;16.57;9.23;;;18.80;99.90;;;;;;5111033;28;20194;-68
2023/08/18 05:56:17;;;;;;;19.03;10.77;;;19.00;99.90;;;;;;5111183;28;20198;-68
2023/08/18 05:59:05;;;;;;;18.93;9.60;;;19.30;99.90;;;;;;5111697;28;20195;-68
2023/08/18 06:01:53;;;;;;;17.17;9.93;;;19.50;99.90;;;;;;5111368;28;20234;-68
2023/08/18 06:04:40;;;;;;;14.37;9.80;;;19.70;99.90;;;;;;5110832;28;20195;-68
2023/08/18 06:07:27;;;;;;;15.03;9.33;;;19.90;99.90;;;;;;5112053;28;20214;-68
2023/08/18 06:10:15;;;;;;;12.77;9.20;;;20.00;99.90;;;;;;5111657;28;20203;-68
2023/08/18 06:13:03;;;;;;;11.97;9.20;;;20.10;99.90;;;;;;5111393;28;20199;-68
2023/08/18 06:15:52;;;;;;;12.50;8.57;;;20.30;99.90;;;;;;5111492;28;20199;-68
2023/08/18 06:18:39;;;;;;;11.23;8.50;;;20.50;99.90;;;;;;5111268;28;20191;-68
2023/08/18 06:21:26;;;;;;;13.30;9.10;;;20.60;99.90;;;;;;5111449;28;20202;-68
2023/08/18 06:24:13;;;;;;;15.33;8.43;;;20.80;99.90;;;;;;5112423;28;20725;-68
2023/08/18 06:27:02;;;;;;;11.60;8.93;;;21.00;99.90;;;;;;5111259;28;20211;-68
2023/08/18 06:29:49;;;;;;;12.83;8.80;;;21.30;99.90;;;;;;5111375;28;20203;-68
2023/08/18 06:32:36;;;;;;;10.80;9.30;;;21.50;99.90;;;;;;5111012;28;20199;-68
2023/08/18 06:35:24;;;;;;;13.07;9.30;;;21.70;99.90;;;;;;5111514;28;20199;-68
2023/08/18 06:38:11;;;;;;;13.13;8.70;;;21.90;99.90;;;;;;5111212;28;20247;-68
2023/08/18 06:40:58;;;;;;;13.17;7.87;;;22.10;99.90;;;;;;5111210;28;20195;-68
2023/08/18 06:43:47;;;;;;;13.80;7.13;;;22.20;99.90;;;;;;5113559;28;20201;-68
2023/08/18 06:46:34;;;;;;;12.20;7.23;;;22.40;99.90;;;;;;5114648;28;20190;-68
2023/08/18 06:49:21;;;;;;;9.03;7.17;;;22.50;99.90;;;;;;5115592;28;20558;-68
2023/08/18 06:52:08;;;;;;;8.60;7.17;;;22.60;99.90;;;;;;5114606;28;20219;-68
2023/08/18 06:54:55;;;;;;;8.83;7.03;;;22.70;99.90;;;;;;5115221;28;20203;-68
2023/08/18 06:57:43;;;;;;;10.03;6.90;;;22.90;99.90;;;;;;5114373;28;20579;-68
2023/08/18 07:00:32;;;;;;;9.50;6.63;;;23.00;99.90;;;;;;5114971;28;20693;-68
2023/08/18 07:03:19;;;;;;;7.63;6.17;;;23.20;99.90;;;;;;5114562;28;20254;-67
2023/08/18 07:06:08;;;;;;;9.75;6.78;;;23.10;99.90;;;;;;5114483;28;20693;-68
2023/08/18 07:08:56;;;;;;;10.63;7.15;;;23.10;99.90;;;;;;5113311;28;20215;-67
2023/08/18 07:11:43;;;;;;;13.57;7.15;;;23.30;99.90;;;;;;5114261;28;20195;-67
2023/08/18 07:14:30;;;;;;;12.52;6.70;;;23.50;99.90;;;;;;5114302;28;20199;-67
2023/08/18 07:17:19;;;;;;;9.30;6.32;;;23.60;99.90;;;;;;5114217;28;20199;-67
2023/08/18 07:20:12;;;;;;;9.73;7.03;;;23.80;99.90;;;;;;5114131;28;20280;-67
2023/08/18 07:22:59;;;;;;;10.93;6.75;;;23.90;99.90;;;;;;5114658;28;20202;-67
2023/08/18 07:25:47;;;;;;;11.63;6.65;;;24.00;99.90;;;;;;5114085;28;20211;-67
2023/08/18 07:28:34;;;;;;;10.73;7.13;;;24.30;99.90;;;;;;5114368;28;20276;-67
2023/08/18 07:31:22;;;;;;;10.63;6.97;;;24.30;99.90;;;;;;5113963;28;20423;-67
2023/08/18 07:34:13;;;;;;;11.05;6.70;;;24.10;99.90;;;;;;5113915;28;20210;-67
2023/08/18 07:37:04;;;;;;;14.48;7.22;;;24.20;99.90;;;;;;5113788;28;20666;-67
2023/08/18 07:39:51;;;;;;;12.32;6.85;;;24.20;99.90;;;;;;5114367;28;20332;-67
2023/08/18 07:42:45;;;;;;;11.60;6.65;;;24.10;99.90;;;;;;5113531;28;20200;-67
2023/08/18 07:45:33;;;;;;;11.23;6.40;;;24.30;99.90;;;;;;5113764;28;20206;-67
2023/08/18 07:48:20;;;;;;;11.13;5.85;;;24.40;99.90;;;;;;5113363;28;20211;-67
2023/08/18 07:51:08;;;;;;;10.98;5.60;;;24.50;99.90;;;;;;5113821;28;20223;-67
2023/08/18 07:53:56;;;;;;;11.27;5.93;;;24.30;99.90;;;;;;5113531;28;20199;-67
2023/08/18 07:56:45;;;;;;;9.55;6.70;;;24.30;99.90;;;;;;5113052;28;20199;-66
2023/08/18 07:59:32;;;;;;;12.30;6.55;;;24.50;99.90;;;;;;5113452;28;20234;-67
2023/08/18 08:02:20;;;;;;;7.38;6.00;;;24.60;99.90;;;;;;5112951;28;20223;-67
2023/08/18 08:05:10;;;;;;;8.57;6.35;;;24.80;99.90;;;;;;5112864;28;20202;-67
2023/08/18 08:08:01;;;;;;;7.63;5.80;;;24.70;99.90;;;;;;5113318;28;20229;-67
2023/08/18 08:10:48;;;;;;;7.45;5.75;;;24.70;99.90;;;;;;5093869;28;20192;-66
2023/08/18 08:13:37;;;;;;;9.27;5.38;;;25.10;99.90;;;;;;5093010;28;20200;-66
2023/08/18 08:16:25;;;;;;;9.20;5.80;;;25.30;99.90;;;;;;5092673;28;20204;-66
2023/08/18 08:19:13;;;;;;;8.25;5.53;;;25.60;99.90;;;;;;5093566;28;20735;-66
2023/08/18 08:22:03;;;;;;;8.13;5.35;;;25.30;99.90;;;;;;5093318;28;20548;-66
2023/08/18 08:24:54;;;;;;;9.43;5.30;;;25.60;99.90;;;;;;5092036;28;20191;-66
2023/08/18 08:27:41;;;;;;;10.75;5.45;;;25.50;99.90;;;;;;5092747;28;20709;-66
2023/08/18 08:30:29;;;;;;;10.27;5.43;;;25.70;99.90;;;;;;5092123;28;20211;-66
2023/08/18 08:33:16;;;;;;;8.40;5.50;;;25.70;99.90;;;;;;5092321;28;20192;-66
2023/08/18 08:36:04;;;;;;;10.60;5.97;;;25.70;99.90;;;;;;5092890;28;20278;-66
2023/08/18 08:38:54;;;;;;;11.57;5.95;;;25.80;99.90;;;;;;5093826;28;20569;-66
2023/08/18 08:41:43;;;;;;;8.18;5.85;;;26.10;99.90;;;;;;5092169;28;20200;-66
2023/08/18 08:44:30;;;;;;;7.72;5.30;;;26.40;99.90;;;;;;5091990;28;20192;-67
2023/08/18 08:47:17;;;;;;;10.45;5.55;;;26.50;99.90;;;;;;5091101;28;20677;-66
2023/08/18 08:50:08;;;;;;;8.18;6.47;;;26.40;99.90;;;;;;5092095;28;20203;-66
2023/08/18 08:52:56;;;;;;;7.82;6.32;;;26.40;99.90;;;;;;5092224;28;20216;-66
2023/08/18 08:55:44;;;;;;;11.10;6.03;;;26.60;99.90;;;;;;5091610;28;20249;-66
2023/08/18 08:58:32;;;;;;;13.65;6.50;;;26.40;99.90;;;;;;5091667;28;20195;-66
2023/08/18 09:01:20;;;;;;;13.35;6.43;;;26.20;99.90;;;;;;5092450;28;20306;-66
2023/08/18 09:04:08;;;;;;;11.80;6.82;;;26.30;99.90;;;;;;5091548;28;20244;-66
2023/08/18 09:06:57;;;;;;;9.90;6.65;;;26.40;99.90;;;;;;5092010;28;20203;-66
2023/08/18 09:09:45;;;;;;;8.98;6.35;;;26.50;99.90;;;;;;5103365;28;20560;-66
2023/08/18 09:12:33;;;;;;;14.75;7.40;;;26.70;99.90;;;;;;5111315;28;20195;-66
2023/08/18 09:15:22;;;;;;;12.85;7.43;;;26.70;99.90;;;;;;5111585;28;20245;-66
2023/08/18 09:18:09;;;;;;;13.43;7.80;;;26.90;99.90;;;;;;5112697;28;20203;-66
2023/08/18 09:20:57;;;;;;;8.07;7.13;;;27.40;99.90;;;;;;5111915;28;20206;-66
2023/08/18 09:23:44;;;;;;;14.38;8.25;;;27.20;99.90;;;;;;5111990;28;20203;-66
2023/08/18 09:26:31;;;;;;;13.20;7.45;;;27.80;99.90;;;;;;5112249;28;20203;-66
2023/08/18 09:29:19;;;;;;;11.30;7.90;;;28.40;99.90;;;;;;5111645;28;20584;-66
2023/08/18 09:32:09;;;;;;;12.60;7.80;;;28.70;99.90;;;;;;5112252;28;20645;-66
2023/08/18 09:34:56;;;;;;;13.90;8.20;;;28.90;99.90;;;;;;5112015;28;20199;-66
2023/08/18 09:37:44;;;;;;;11.20;7.65;;;29.00;99.90;;;;;;5112531;28;20202;-66
2023/08/18 09:40:31;;;;;;;12.65;8.48;;;29.00;99.90;;;;;;5111948;28;20202;-66
2023/08/18 09:43:19;;;;;;;12.85;8.93;;;29.40;99.90;;;;;;5110734;28;20301;-66
2023/08/18 09:46:08;;;;;;;13.65;8.45;;;29.50;99.90;;;;;;5112005;28;20195;-66
2023/08/18 09:48:58;;;;;;;13.32;8.50;;;29.60;99.90;;;;;;5111221;28;20233;-66
2023/08/18 09:51:46;;;;;;;10.13;7.78;;;29.60;99.90;;;;;;5111982;28;20348;-66
2023/08/18 09:54:43;;;;;;;13.02;8.05;;;29.50;99.90;;;;;;5111562;28;20206;-66
2023/08/18 09:57:32;;;;;;;16.73;8.50;;;29.30;99.90;;;;;;5111867;28;20195;-66
2023/08/18 10:00:19;;;;;;;14.18;9.10;;;29.30;99.90;;;;;;5111495;28;20199;-65
2023/08/18 10:03:08;;;;;;;12.88;9.13;;;29.40;99.90;;;;;;5110738;28;20230;-66
2023/08/18 10:05:57;;;;;;;11.27;8.93;;;29.40;99.90;;;;;;5111519;28;20209;-66
2023/08/18 10:08:44;;;;;;;16.67;8.02;;;29.70;99.90;;;;;;5111445;28;20332;-66
2023/08/18 10:11:32;;;;;;;13.65;8.70;;;29.60;99.90;;;;;;5111125;28;20248;-66
2023/08/18 10:14:19;;;;;;;13.65;8.52;;;29.30;99.90;;;;;;5110796;28;20202;-66
2023/08/18 10:17:06;;;;;;;11.50;8.43;;;29.50;99.90;;;;;;5110623;28;20673;-67
2023/08/18 10:19:55;;;;;;;12.07;8.77;;;29.50;99.90;;;;;;5111079;28;20199;-66
2023/08/18 10:22:44;;;;;;;12.77;8.57;;;29.30;99.90;;;;;;5111339;28;20199;-66
2023/08/18 10:25:35;;;;;;;10.65;8.07;;;29.80;99.90;;;;;;5109898;28;20198;-66
2023/08/18 10:28:28;;;;;;;12.05;8.18;;;30.20;99.90;;;;;;5110619;28;20353;-66
2023/08/18 10:31:16;;;;;;;14.35;8.65;;;30.30;99.90;;;;;;5111547;28;20710;-66
2023/08/18 10:34:10;;;;;;;14.10;8.90;;;30.30;99.90;;;;;;5111686;28;20257;-66
2023/08/18 10:37:01;;;;;;;13.25;9.20;;;30.20;99.90;;;;;;5109796;28;20211;-66
2023/08/18 10:39:51;;;;;;;19.90;9.25;;;30.10;99.90;;;;;;5111257;28;20661;-66
2023/08/18 10:42:39;;;;;;;14.68;9.00;;;30.40;99.90;;;;;;5110498;28;20195;-66
2023/08/18 10:45:28;;;;;;;17.35;9.00;;;30.30;99.90;;;;;;5110672;28;20196;-66
2023/08/18 10:48:15;;;;;;;11.07;8.55;;;30.30;99.90;;;;;;5110442;28;20214;-66
2023/08/18 10:51:02;;;;;;;14.15;8.70;;;30.50;99.90;;;;;;5110990;28;20229;-66
2023/08/18 10:53:50;;;;;;;14.27;8.73;;;30.50;99.90;;;;;;5111327;28;20727;-66
2023/08/18 10:56:38;;;;;;;11.85;8.90;;;29.70;99.90;;;;;;5111345;28;20199;-66
2023/08/18 10:59:30;;;;;;;16.95;9.23;;;29.00;99.90;;;;;;5110340;28;20195;-66
2023/08/18 11:02:17;;;;;;;14.10;8.48;;;29.30;99.90;;;;;;5110933;28;20227;-66
2023/08/18 11:05:12;;;;;;;15.18;8.35;;;29.80;99.90;;;;;;5110858;28;20199;-67
2023/08/18 11:07:59;;;;;;;13.32;8.73;;;29.10;99.90;;;;;;5110955;28;20689;-66
2023/08/18 11:10:47;;;;;;;12.02;8.52;;;29.00;99.90;;;;;;5090493;28;20204;-66
2023/08/18 11:13:35;;;;;;;18.75;8.95;;;29.80;99.90;;;;;;5090039;28;20200;-66
2023/08/18 11:16:23;;;;;;;14.90;8.45;;;29.70;99.90;;;;;;5089853;28;20682;-66
2023/08/18 11:19:12;;;;;;;15.45;8.10;;;28.80;99.90;;;;;;5090098;28;20651;-66
2023/08/18 11:21:59;;;;;;;14.10;8.70;;;29.60;99.90;;;;;;5090873;28;20211;-66
2023/08/18 11:24:54;;;;;;;14.82;8.32;;;30.20;99.90;;;;;;5090052;28;20284;-66
2023/08/18 11:27:44;;;;;;;15.52;8.98;;;30.70;99.90;;;;;;5089903;28;20587;-66
2023/08/18 11:30:34;;;;;;;14.73;10.18;;;31.00;99.90;;;;;;5091761;28;20674;-66
2023/08/18 11:33:25;;;;;;;12.00;8.73;;;31.40;99.90;;;;;;5093025;28;20576;-66
2023/08/18 11:36:14;;;;;;;11.95;8.07;;;31.80;99.90;;;;;;5094555;28;20206;-66
2023/08/18 11:39:06;;;;;;;10.50;8.02;;;31.00;95.50;;;;;;5093356;28;20214;-66
2023/08/18 11:41:54;;;;;;;12.02;8.73;;;30.80;95.60;;;;;;5093723;28;20681;-65
2023/08/18 11:44:41;;;;;;;12.32;8.77;;;30.20;99.90;;;;;;5092516;28;20199;-66
2023/08/18 11:47:30;;;;;;;10.50;7.22;;;31.00;99.90;;;;;;5093822;28;20200;-65
2023/08/18 11:50:20;;;;;;;10.32;7.47;;;31.40;95.20;;;;;;5093148;28;20212;-66
2023/08/18 11:53:08;;;;;;;14.30;8.05;;;31.60;95.70;;;;;;5093983;28;20273;-66
2023/08/18 11:55:57;;;;;;;11.98;7.93;;;31.80;94.40;;;;;;5092437;28;20196;-67
2023/08/18 11:58:44;;;;;;;10.38;7.70;;;31.70;89.40;;;;;;5092913;28;20196;-67
2023/08/18 12:01:33;;;;;;;9.95;7.57;;;31.10;89.80;;;;;;5092830;28;20324;-67
2023/08/18 12:04:25;;;;;;;12.65;7.22;;;31.20;93.60;;;;;;5094479;28;20278;-66
2023/08/18 12:07:12;;;;;;;11.93;7.90;;;30.50;91.40;;;;;;5113205;28;20662;-66
2023/08/18 12:10:00;;;;;;;11.10;8.57;;;31.00;93.70;;;;;;5113711;28;20695;-66
2023/08/18 12:12:52;;;;;;;12.55;6.28;;;31.00;99.90;;;;;;5113499;28;20198;-66
2023/08/18 12:15:39;;;;;;;15.68;7.20;;;31.60;80.80;;;;;;5113583;28;20324;-66
2023/08/18 12:18:26;;;;;;;10.85;7.32;;;30.50;88.30;;;;;;5113487;28;20280;-65
2023/08/18 12:21:15;;;;;;;11.02;6.47;;;30.70;79.70;;;;;;5113664;28;20218;-65
2023/08/18 12:24:03;;;;;;;9.07;6.38;;;31.40;89.10;;;;;;5113092;28;20199;-66
2023/08/18 12:26:51;;;;;;;9.93;6.57;;;31.80;83.30;;;;;;5111591;28;20328;-65
2023/08/18 12:29:38;;;;;;;14.88;6.90;;;31.40;76.90;;;;;;5113740;28;20681;-66
2023/08/18 12:32:25;;;;;;;7.60;6.10;;;30.80;81.50;;;;;;5113187;28;20203;-66
2023/08/18 12:35:12;;;;;;;8.80;6.30;;;29.80;85.90;;;;;;5112600;28;20594;-66
2023/08/18 12:38:02;;;;;;;12.32;7.47;;;29.40;92.40;;;;;;5112795;28;20556;-65
2023/08/18 12:40:49;;;;;;;10.63;6.50;;;29.40;99.90;;;;;;5112781;28;20240;-65
2023/08/18 12:43:37;;;;;;;10.90;6.22;;;29.10;99.90;;;;;;5112989;28;20199;-66
2023/08/18 12:46:24;;;;;;;8.35;6.30;;;28.60;99.90;;;;;;5112892;28;20199;-66
2023/08/18 12:49:12;;;;;;;9.02;7.40;;;29.00;99.90;;;;;;5112589;28;20704;-67
2023/08/18 12:51:59;;;;;;;11.93;6.68;;;28.80;99.90;;;;;;5112610;28;20222;-65
2023/08/18 12:54:49;;;;;;;11.10;7.07;;;29.20;99.70;;;;;;5112647;28;20680;-66
2023/08/18 12:57:36;;;;;;;7.82;5.88;;;28.80;99.90;;;;;;5112419;28;20548;-65
2023/08/18 13:00:23;;;;;;;10.57;6.03;;;29.30;99.30;;;;;;5112552;28;20218;-65
2023/08/18 13:03:11;;;;;;;7.45;5.80;;;29.20;94.70;;;;;;5112378;28;20223;-65
2023/08/18 13:05:58;;;;;;;8.00;5.93;;;29.20;99.90;;;;;;5111346;28;20612;-65
2023/08/18 13:08:46;;;;;;;8.85;5.88;;;29.80;95.50;;;;;;5111965;28;20344;-65
2023/08/18 13:11:36;;;;;;;7.93;5.63;;;30.00;99.90;;;;;;5111475;28;20202;-66
2023/08/18 13:14:23;;;;;;;10.68;5.05;;;30.60;94.40;;;;;;5111775;28;20692;-66
2023/08/18 13:17:10;;;;;;;8.27;5.25;;;30.90;82.90;;;;;;5111838;28;20675;-66
2023/08/18 13:19:58;;;;;;;9.98;5.90;;;31.00;89.90;;;;;;5111932;28;20661;-65
2023/08/18 13:22:46;;;;;;;12.60;6.22;;;29.90;91.70;;;;;;5112020;28;20203;-65
2023/08/18 13:25:34;;;;;;;6.22;4.70;;;30.00;93.40;;;;;;5110885;28;20649;-65
2023/08/18 13:28:23;;;;;;;12.40;5.30;;;29.50;82.70;;;;;;5111662;28;20201;-66
2023/08/18 13:31:10;;;;;;;7.07;5.07;;;29.70;87.60;;;;;;5111616;28;20214;-65
2023/08/18 13:33:57;;;;;;;7.53;5.05;;;29.90;90.00;;;;;;5111368;28;20207;-65
2023/08/18 13:36:44;;;;;;;10.55;5.63;;;29.90;83.90;;;;;;5110970;28;20202;-66
2023/08/18 13:39:31;;;;;;;7.25;4.13;;;30.70;91.00;;;;;;5112049;28;20248;-66
2023/08/18 13:42:19;;;;;;;6.28;3.67;;;30.40;72.10;;;;;;5111566;28;20203;-65
2023/08/18 13:45:09;;;;;;;8.75;5.20;;;30.10;68.30;;;;;;5110375;28;20195;-65
2023/08/18 13:47:56;;;;;;;9.13;5.25;;;30.40;69.00;;;;;;5112041;28;20195;-65
2023/08/18 13:50:43;;;;;;;7.32;5.05;;;30.20;69.80;;;;;;5111011;28;20219;-65
2023/08/18 13:53:32;;;;;;;5.20;4.63;;;30.50;75.30;;;;;;5110436;28;20223;-65
2023/08/18 13:56:19;;;;;;;8.38;4.93;;;31.20;72.80;;;;;;5111252;28;20256;-65
2023/08/18 13:59:06;;;;;;;5.88;4.07;;;31.60;67.10;;;;;;5111430;28;20222;-65
2023/08/18 14:01:55;;;;;;;9.50;4.53;;;31.80;69.00;;;;;;5110661;28;20307;-65
2023/08/18 14:04:42;;;;;;;5.75;3.95;;;32.30;72.20;;;;;;5111456;28;20555;-65
2023/08/18 14:07:29;;;;;;;9.73;4.72;;;32.50;59.00;;;;;;5111772;28;20199;-65
2023/08/18 14:10:17;;;;;;;6.10;4.10;;;32.40;57.90;;;;;;5111215;28;20207;-65
2023/08/18 14:13:04;;;;;;;7.55;4.35;;;32.50;61.30;;;;;;5111513;28;20202;-65
2023/08/18 14:15:51;;;;;;;13.05;4.43;;;32.90;57.80;;;;;;5111771;28;20196;-65
2023/08/18 14:18:40;;;;;;;8.02;4.55;;;32.90;61.30;;;;;;5111034;28;20199;-66
2023/08/18 14:21:27;;;;;;;5.80;4.00;;;32.90;60.40;;;;;;5111389;28;20718;-65
2023/08/18 14:24:14;;;;;;;5.35;4.05;;;32.90;59.50;;;;;;5111551;28;20206;-65